Terminal Aerodrome Forecast
Issued by NWS

Home | Current Version | Previous Version | Text Only | Print | Product List | Glossary On
Versions: 1 2 3 4 5 6 7 8 9 10 11 12 13 14 15 16 17 18 19 20 21 22 23 24 25 26 27 28 29 30 31
000
FTUS45 KBYZ 291433 AAB
TAFLVM
TAF AMD
KLVM 291433Z 2915/3012 10011KT P6SM BKN004 OVC015
      TEMPO 2915/2918 SCT015 BKN050
     FM291800 10015KT P6SM VCSH BKN070
     FM300100 12009KT P6SM VCSH FEW035=

USA.gov is the U.S. government's official web portal to all federal, state and local government web resources and services.